Time;durP1;ratioP1;P1;durP2;ratioP2;P2;SDS_P1;SDS_P2;PMS_P1;PMS_P2;Temp;Humidity;BMP_temperature;BMP_pressure;BME280_temperature;BME280_humidity;BME280_pressure;Samples;Min_cycle;Max_cycle;Signal;HPM_P1;HPM_P2
2023/03/08 00:02:13;;;;;;;30.88;15.30;;;;;;;0.72;100.00;99901.06;5014516;28;20025;-77
2023/03/08 00:04:38;;;;;;;27.38;13.93;;;;;;;0.72;100.00;99898.41;5015048;28;20029;-77
2023/03/08 00:07:03;;;;;;;29.50;14.30;;;;;;;0.69;100.00;99899.44;5015056;28;20125;-77
2023/03/08 00:09:29;;;;;;;28.67;14.45;;;;;;;0.68;100.00;99898.56;5031339;28;20030;-77
2023/03/08 00:11:54;;;;;;;29.45;13.65;;;;;;;0.67;100.00;99899.53;5034502;28;20029;-77
2023/03/08 00:14:21;;;;;;;29.02;15.43;;;;;;;0.66;100.00;99889.88;5031397;28;20401;-77
2023/03/08 00:16:46;;;;;;;26.25;13.60;;;;;;;0.67;100.00;99893.34;5018519;28;20029;-77
2023/03/08 00:19:12;;;;;;;27.55;14.02;;;;;;;0.66;100.00;99891.66;5008710;28;20032;-77
2023/03/08 00:21:37;;;;;;;27.70;14.15;;;;;;;0.63;100.00;99890.00;5004729;28;20060;-77
2023/03/08 00:24:02;;;;;;;29.15;14.50;;;;;;;0.65;100.00;99889.94;5014362;28;20462;-77
2023/03/08 00:26:28;;;;;;;26.67;14.68;;;;;;;0.66;100.00;99905.72;5014026;28;20025;-77
2023/03/08 00:28:53;;;;;;;33.83;15.05;;;;;;;0.69;100.00;99905.59;5011015;28;20060;-77
2023/03/08 00:31:19;;;;;;;26.38;13.65;;;;;;;0.71;100.00;99900.22;5011648;28;20524;-77
2023/03/08 00:33:44;;;;;;;27.90;15.25;;;;;;;0.73;100.00;99897.50;5032301;28;20029;-77
2023/03/08 00:36:17;;;;;;;27.65;14.45;;;;;;;0.75;100.00;99899.16;5014106;28;20036;-77
2023/03/08 00:38:43;;;;;;;28.85;14.60;;;;;;;0.76;100.00;99900.88;5030981;28;20029;-77
2023/03/08 00:41:09;;;;;;;28.02;14.63;;;;;;;0.73;100.00;99898.34;5030299;28;20092;-77
2023/03/08 00:43:35;;;;;;;27.58;15.23;;;;;;;0.74;100.00;99896.56;5031537;28;20025;-77
2023/03/08 00:46:00;;;;;;;30.98;15.15;;;;;;;0.74;100.00;99896.56;5029914;28;20057;-77
2023/03/08 00:48:26;;;;;;;28.77;15.80;;;;;;;0.73;100.00;99889.56;5013338;28;20033;-77
2023/03/08 00:50:52;;;;;;;26.98;14.57;;;;;;;0.73;100.00;99885.13;5013810;28;20022;-77
2023/03/08 00:53:18;;;;;;;30.17;16.05;;;;;;;0.72;100.00;99874.63;5012464;28;20041;-77
2023/03/08 00:55:52;;;;;;;30.70;17.38;;;;;;;0.73;100.00;99890.41;5031789;28;20076;-77
2023/03/08 00:58:18;;;;;;;33.70;18.15;;;;;;;0.74;100.00;99878.91;5008374;28;20037;-77
2023/03/08 01:00:44;;;;;;;30.25;17.13;;;;;;;0.74;100.00;99876.25;5003973;28;20091;-77
2023/03/08 01:03:09;;;;;;;31.85;17.48;;;;;;;0.76;100.00;99879.72;5022863;28;20103;-77
2023/03/08 01:05:42;;;;;;;32.20;17.42;;;;;;;0.78;100.00;99871.69;5030734;28;20033;-77
2023/03/08 01:08:08;;;;;;;31.75;17.60;;;;;;;0.80;100.00;99872.47;5028727;28;20033;-77
2023/03/08 01:10:34;;;;;;;32.88;17.50;;;;;;;0.80;100.00;99869.81;5011057;28;20124;-77
2023/03/08 01:13:00;;;;;;;31.88;17.00;;;;;;;0.83;100.00;99869.69;5029679;28;20105;-77
2023/03/08 01:15:25;;;;;;;32.50;19.13;;;;;;;0.83;100.00;99861.75;5030010;28;20029;-77
2023/03/08 01:17:50;;;;;;;33.72;18.88;;;;;;;0.84;100.00;99852.88;5012063;28;20537;-77
2023/03/08 01:20:16;;;;;;;32.63;18.73;;;;;;;0.82;100.00;99846.78;5010484;28;20116;-77
2023/03/08 01:22:41;;;;;;;33.75;18.35;;;;;;;0.81;100.00;99848.59;5016372;28;20025;-77
2023/03/08 01:25:07;;;;;;;33.15;17.90;;;;;;;0.82;100.00;99842.38;5012706;28;20108;-77
2023/03/08 01:27:32;;;;;;;32.55;18.48;;;;;;;0.85;100.00;99841.38;5030770;28;20033;-77
2023/03/08 01:29:57;;;;;;;33.38;18.42;;;;;;;0.86;100.00;99832.50;5028511;28;20034;-77
2023/03/08 01:32:23;;;;;;;31.05;18.42;;;;;;;0.89;100.00;99832.34;5003824;28;20092;-77
2023/03/08 01:34:48;;;;;;;35.08;20.42;;;;;;;0.89;100.00;99821.75;5029618;28;20119;-77
2023/03/08 01:37:13;;;;;;;32.78;19.15;;;;;;;0.92;100.00;99816.31;5012239;28;20436;-77
2023/03/08 01:39:39;;;;;;;34.53;20.27;;;;;;;0.94;100.00;99809.16;5010634;28;20024;-77
2023/03/08 01:42:06;;;;;;;36.05;20.27;;;;;;;0.96;100.00;99817.03;5029551;28;20112;-77
2023/03/08 01:44:58;;;;;;;36.17;22.40;;;;;;;1.00;100.00;99810.66;5029234;28;20393;-77
2023/03/08 01:47:28;;;;;;;35.60;19.33;;;;;;;1.00;100.00;99808.00;5025055;28;20044;-77
2023/03/08 01:49:58;;;;;;;35.80;22.20;;;;;;;1.03;100.00;99800.75;5027058;28;20104;-77
2023/03/08 01:52:33;;;;;;;38.65;21.58;;;;;;;1.03;100.00;99803.41;5030163;28;20068;-77
2023/03/08 01:55:02;;;;;;;37.50;21.98;;;;;;;1.04;100.00;99798.97;5029602;28;20029;-77
2023/03/08 01:57:33;;;;;;;34.08;19.58;;;;;;;1.05;100.00;99795.38;5027421;28;20037;-77
2023/03/08 02:00:08;;;;;;;37.30;21.45;;;;;;;1.03;100.00;99792.81;5010669;28;20386;-77
2023/03/08 02:03:03;;;;;;;37.50;20.88;;;;;;;1.07;100.00;99793.53;5017706;28;20116;-77
2023/03/08 02:05:29;;;;;;;38.15;22.15;;;;;;;1.04;100.00;99791.88;5684718;22;20044;-73
2023/03/08 02:07:55;;;;;;;36.45;21.38;;;;;;;1.06;100.00;99793.63;5067292;28;20371;-73
2023/03/08 02:10:20;;;;;;;38.63;21.45;;;;;;;1.06;100.00;99796.25;5074467;28;20099;-73
2023/03/08 02:12:47;;;;;;;40.30;21.80;;;;;;;1.06;100.00;99780.38;5055916;28;20020;-73
2023/03/08 02:15:16;;;;;;;37.03;22.17;;;;;;;1.08;100.00;99771.41;5074146;28;20053;-73
2023/03/08 02:17:41;;;;;;;40.10;22.42;;;;;;;1.09;100.00;99759.91;5084376;28;20225;-72
2023/03/08 02:20:13;;;;;;;38.92;21.20;;;;;;;1.11;100.00;99758.00;5055926;28;20077;-73
2023/03/08 02:22:44;;;;;;;38.92;22.15;;;;;;;1.13;100.00;99760.59;5071457;28;20064;-73
2023/03/08 02:25:15;;;;;;;38.83;22.02;;;;;;;1.12;100.00;99757.09;5085447;28;20020;-73
2023/03/08 02:27:40;;;;;;;37.40;22.17;;;;;;;1.13;100.00;99752.66;5074247;28;20035;-73
2023/03/08 02:30:07;;;;;;;40.25;24.15;;;;;;;1.16;100.00;99752.50;5067453;28;20115;-73
2023/03/08 02:32:33;;;;;;;36.10;20.70;;;;;;;1.16;100.00;99747.22;5063214;28;20066;-73
2023/03/08 02:34:58;;;;;;;39.00;22.85;;;;;;;1.18;100.00;99755.91;5080889;28;20085;-73
2023/03/08 02:37:23;;;;;;;37.58;19.98;;;;;;;1.18;100.00;99746.19;5074214;28;20028;-73
2023/03/08 02:39:49;;;;;;;36.42;22.33;;;;;;;1.18;100.00;99740.03;5087671;28;20028;-73
2023/03/08 02:42:14;;;;;;;37.55;23.30;;;;;;;1.18;100.00;99734.75;5080233;28;20032;-73
2023/03/08 02:44:39;;;;;;;36.75;21.63;;;;;;;1.18;100.00;99740.03;5080464;28;20039;-73
2023/03/08 02:47:05;;;;;;;37.88;21.27;;;;;;;1.20;100.00;99736.38;5057232;28;20028;-73
2023/03/08 02:49:30;;;;;;;38.33;22.10;;;;;;;1.22;100.00;99723.91;5069779;28;20074;-73
2023/03/08 02:51:56;;;;;;;36.80;22.00;;;;;;;1.24;100.00;99737.06;5077239;28;20025;-73
2023/03/08 02:54:21;;;;;;;39.00;21.77;;;;;;;1.22;100.00;99734.50;5069183;28;20032;-73
2023/03/08 02:56:46;;;;;;;35.92;21.90;;;;;;;1.21;100.00;99722.19;5086998;28;20031;-73
2023/03/08 02:59:11;;;;;;;36.22;21.20;;;;;;;1.21;100.00;99724.84;5089562;28;20542;-73
2023/03/08 03:01:37;;;;;;;36.83;20.38;;;;;;;1.21;100.00;99724.00;5059158;28;20032;-72
2023/03/08 03:04:02;;;;;;;40.33;21.10;;;;;;;1.18;100.00;99717.06;5056182;28;20143;-73
2023/03/08 03:06:28;;;;;;;37.05;21.08;;;;;;;1.18;100.00;99725.00;5067911;28;20094;-73
2023/03/08 03:08:53;;;;;;;38.00;20.27;;;;;;;1.19;100.00;99720.59;5066196;28;20155;-73
2023/03/08 03:11:20;;;;;;;37.67;21.20;;;;;;;1.19;100.00;99694.13;5071090;28;20020;-74
2023/03/08 03:13:47;;;;;;;37.67;21.67;;;;;;;1.18;100.00;99701.19;5070183;28;20036;-73
2023/03/08 03:16:14;;;;;;;35.97;20.35;;;;;;;1.17;100.00;99703.91;5070698;28;20421;-73
2023/03/08 03:18:40;;;;;;;35.33;21.95;;;;;;;1.18;100.00;99700.34;5068304;28;20033;-73
2023/03/08 03:21:08;;;;;;;36.50;21.35;;;;;;;1.15;100.00;99696.06;5069312;28;20025;-73
2023/03/08 03:23:34;;;;;;;35.03;21.05;;;;;;;1.15;100.00;99696.06;5068989;28;20103;-73
2023/03/08 03:26:09;;;;;;;39.95;22.90;;;;;;;1.17;100.00;99690.69;5069497;28;20158;-73
2023/03/08 03:28:34;;;;;;;36.17;21.05;;;;;;;1.17;100.00;99683.63;5069195;28;20115;-73
2023/03/08 03:31:00;;;;;;;35.28;20.23;;;;;;;1.17;100.00;99672.16;5062860;28;20100;-73
2023/03/08 03:33:25;;;;;;;38.30;22.48;;;;;;;1.16;100.00;99662.53;5071065;28;20083;-73
2023/03/08 03:35:51;;;;;;;38.90;23.35;;;;;;;1.16;100.00;99657.25;5071122;28;20028;-73
2023/03/08 03:38:16;;;;;;;42.35;23.27;;;;;;;1.17;100.00;99657.16;5074423;28;20569;-73
2023/03/08 03:40:41;;;;;;;38.85;22.92;;;;;;;1.16;100.00;99647.50;5071094;28;20035;-73
2023/03/08 03:43:07;;;;;;;41.67;24.25;;;;;;;1.16;100.00;99654.59;5074298;28;20125;-73
2023/03/08 03:45:32;;;;;;;39.15;22.77;;;;;;;1.16;100.00;99660.72;5072708;28;20090;-73
2023/03/08 03:47:57;;;;;;;36.13;21.58;;;;;;;1.19;100.00;99651.78;5071923;28;20023;-73
2023/03/08 03:50:22;;;;;;;36.55;22.45;;;;;;;1.19;100.00;99649.13;5072409;28;20028;-73
2023/03/08 03:52:48;;;;;;;39.03;22.33;;;;;;;1.20;100.00;99648.16;5072605;28;20021;-73
2023/03/08 03:55:13;;;;;;;38.83;22.05;;;;;;;1.22;100.00;99648.97;5072926;28;20036;-73
2023/03/08 03:57:38;;;;;;;34.60;20.33;;;;;;;1.21;100.00;99636.66;5073954;28;20036;-73
2023/03/08 04:00:05;;;;;;;37.88;22.15;;;;;;;1.23;100.00;99640.09;5058997;28;20049;-72
2023/03/08 04:02:30;;;;;;;37.05;21.58;;;;;;;1.24;100.00;99639.13;5056573;28;20062;-72
2023/03/08 04:04:56;;;;;;;38.50;21.02;;;;;;;1.21;100.00;99626.06;5072434;28;20025;-72
2023/03/08 04:07:21;;;;;;;35.85;19.23;;;;;;;1.22;100.00;99627.78;5073806;28;20090;-73
2023/03/08 04:09:47;;;;;;;41.17;21.42;;;;;;;1.23;100.00;99629.50;5072244;28;20395;-73
2023/03/08 04:12:13;;;;;;;35.85;19.27;;;;;;;1.22;100.00;99618.06;5072604;28;20422;-74
2023/03/08 04:14:39;;;;;;;35.03;19.58;;;;;;;1.24;100.00;99619.75;5072504;28;20040;-73
2023/03/08 04:17:05;;;;;;;35.33;18.85;;;;;;;1.23;100.00;99613.63;5073315;28;20021;-73
2023/03/08 04:19:30;;;;;;;32.63;17.60;;;;;;;1.23;100.00;99608.34;5070431;28;20364;-73
2023/03/08 04:21:55;;;;;;;33.78;17.85;;;;;;;1.24;100.00;99602.09;5072152;28;20498;-72
2023/03/08 04:24:21;;;;;;;31.55;16.75;;;;;;;1.22;100.00;99594.22;5069479;28;20032;-73
2023/03/08 04:26:46;;;;;;;32.50;16.95;;;;;;;1.24;100.00;99591.50;5071620;28;20436;-73
2023/03/08 04:29:11;;;;;;;32.33;16.35;;;;;;;1.24;100.00;99583.56;5071007;28;20043;-73
2023/03/08 04:31:37;;;;;;;30.38;14.98;;;;;;;1.24;100.00;99586.19;5072049;28;20107;-73
2023/03/08 04:34:02;;;;;;;29.30;15.45;;;;;;;1.23;100.00;99576.56;5072061;28;20062;-73
2023/03/08 04:36:28;;;;;;;30.45;16.13;;;;;;;1.25;100.00;99579.97;5070543;28;20024;-73
2023/03/08 04:38:54;;;;;;;28.38;14.40;;;;;;;1.27;100.00;99574.59;5070260;28;20056;-73
2023/03/08 04:41:19;;;;;;;31.08;15.15;;;;;;;1.26;100.00;99568.47;5067652;28;20062;-73
2023/03/08 04:43:47;;;;;;;27.90;12.25;;;;;;;1.25;100.00;99563.25;5070456;28;20021;-73
2023/03/08 04:46:17;;;;;;;28.88;14.48;;;;;;;1.25;100.00;99564.09;5070929;28;20066;-73
2023/03/08 04:48:42;;;;;;;27.30;13.85;;;;;;;1.25;100.00;99561.44;5070991;28;20364;-73
2023/03/08 04:51:10;;;;;;;30.90;13.98;;;;;;;1.25;100.00;99555.31;5072176;28;20039;-73
2023/03/08 04:53:37;;;;;;;32.17;15.82;;;;;;;1.25;100.00;99556.16;5071046;28;20028;-73
2023/03/08 04:56:04;;;;;;;25.27;12.73;;;;;;;1.26;100.00;99555.22;5069650;28;20059;-73
2023/03/08 04:58:30;;;;;;;27.85;14.77;;;;;;;1.25;100.00;99542.94;5071444;28;20035;-73
2023/03/08 05:00:56;;;;;;;26.27;11.43;;;;;;;1.24;100.00;99535.91;5059487;28;20467;-72
2023/03/08 05:03:21;;;;;;;27.30;12.75;;;;;;;1.25;100.00;99532.34;5058715;28;20039;-73
2023/03/08 05:05:49;;;;;;;27.08;13.63;;;;;;;1.23;100.00;99518.34;5068991;28;20041;-73
2023/03/08 05:08:14;;;;;;;26.98;13.15;;;;;;;1.21;100.00;99529.00;5072626;28;20044;-73
2023/03/08 05:10:46;;;;;;;25.33;10.70;;;;;;;1.19;100.00;99522.09;5054713;28;20016;-73
2023/03/08 05:13:11;;;;;;;27.52;12.20;;;;;;;1.18;100.00;99515.94;5076413;28;20027;-73
2023/03/08 05:15:36;;;;;;;25.27;11.27;;;;;;;1.17;100.00;99516.03;5082201;28;20042;-73
2023/03/08 05:18:02;;;;;;;27.40;13.38;;;;;;;1.18;100.00;99508.00;5072185;28;20029;-73
2023/03/08 05:20:27;;;;;;;27.38;11.85;;;;;;;1.19;100.00;99506.22;5071262;28;20463;-73
2023/03/08 05:22:52;;;;;;;25.65;10.38;;;;;;;1.18;100.00;99507.16;5072129;28;20476;-73
2023/03/08 05:25:18;;;;;;;25.25;10.77;;;;;;;1.18;100.00;99502.72;5071443;28;20023;-73
2023/03/08 05:27:43;;;;;;;27.63;12.43;;;;;;;1.19;100.00;99500.94;5070155;28;20025;-73
2023/03/08 05:30:09;;;;;;;26.10;10.80;;;;;;;1.18;100.00;99491.28;5071590;28;20032;-73
2023/03/08 05:32:34;;;;;;;24.85;10.75;;;;;;;1.18;100.00;99488.63;5066546;28;20024;-73
2023/03/08 05:34:59;;;;;;;25.33;11.32;;;;;;;1.18;100.00;99483.34;5067995;28;20067;-73
2023/03/08 05:37:24;;;;;;;24.30;11.40;;;;;;;1.17;100.00;99471.91;5068901;28;20020;-73
2023/03/08 05:39:51;;;;;;;25.73;11.15;;;;;;;1.17;100.00;99473.69;5069400;28;20064;-72
2023/03/08 05:42:18;;;;;;;24.38;11.48;;;;;;;1.16;100.00;99464.91;5067667;28;20103;-73
2023/03/08 05:44:44;;;;;;;24.92;11.85;;;;;;;1.15;100.00;99457.06;5069108;28;20092;-73
2023/03/08 05:47:09;;;;;;;22.98;8.63;;;;;;;1.14;100.00;99455.34;5070446;28;20028;-73
2023/03/08 05:49:34;;;;;;;23.23;9.32;;;;;;;1.13;100.00;99451.84;5071848;28;20028;-73
2023/03/08 05:51:59;;;;;;;21.08;8.88;;;;;;;1.12;100.00;99444.84;5068389;28;20021;-73
2023/03/08 05:54:25;;;;;;;22.98;9.23;;;;;;;1.08;100.00;99445.94;5070265;28;20031;-73
2023/03/08 05:56:50;;;;;;;20.20;7.50;;;;;;;1.08;100.00;99437.16;5069156;28;20493;-73
2023/03/08 05:59:15;;;;;;;20.73;7.28;;;;;;;1.06;100.00;99423.19;5072180;28;20520;-73
2023/03/08 06:01:40;;;;;;;22.50;7.10;;;;;;;1.03;100.00;99414.47;5056125;28;20035;-72
2023/03/08 06:04:06;;;;;;;22.25;9.02;;;;;;;1.02;100.00;99412.75;5056272;28;20513;-73
2023/03/08 06:06:31;;;;;;;21.95;7.22;;;;;;;0.99;100.00;99415.56;5070276;28;20045;-73
2023/03/08 06:08:57;;;;;;;19.85;6.97;;;;;;;0.96;100.00;99414.91;5057781;28;20025;-73
2023/03/08 06:11:22;;;;;;;21.80;7.88;;;;;;;0.93;100.00;99420.38;5066608;28;20020;-73
2023/03/08 06:13:47;;;;;;;19.92;6.10;;;;;;;0.90;100.00;99418.75;5062884;28;20099;-73
2023/03/08 06:16:13;;;;;;;21.92;6.45;;;;;;;0.86;100.00;99414.56;5070483;28;20029;-73
2023/03/08 06:18:41;;;;;;;17.52;5.95;;;;;;;0.81;100.00;99414.00;5071250;28;20108;-73
2023/03/08 06:21:11;;;;;;;19.40;6.25;;;;;;;0.77;100.00;99421.22;5067499;28;20016;-73
2023/03/08 06:23:36;;;;;;;19.13;6.38;;;;;;;0.78;100.00;99416.81;5066416;28;20036;-73
2023/03/08 06:26:03;;;;;;;16.17;5.03;;;;;;;0.73;100.00;99413.56;5069015;28;20024;-73
2023/03/08 06:28:29;;;;;;;17.48;5.22;;;;;;;0.68;100.00;99411.16;5061471;28;20021;-74
2023/03/08 06:30:54;;;;;;;16.65;5.47;;;;;;;0.66;100.00;99407.78;5064933;28;20378;-75
2023/03/08 06:33:23;;;;;;;18.70;5.88;;;;;;;0.64;100.00;99406.97;5064244;28;20021;-74
2023/03/08 06:36:00;;;;;;;16.98;5.22;;;;;;;0.60;100.00;99395.75;5065790;28;20029;-73
2023/03/08 06:38:26;;;;;;;17.17;5.28;;;;;;;0.55;100.00;99397.78;5062043;28;20549;-73
2023/03/08 06:40:52;;;;;;;17.65;4.65;;;;;;;0.54;100.00;99397.84;5061461;28;20028;-74
2023/03/08 06:43:18;;;;;;;18.67;4.53;;;;;;;0.47;100.00;99398.19;5063322;28;20032;-73
2023/03/08 06:45:43;;;;;;;18.67;5.28;;;;;;;0.44;100.00;99389.56;5065599;28;20135;-73
2023/03/08 06:48:08;;;;;;;14.75;4.05;;;;;;;0.40;100.00;99399.47;5066362;28;20028;-73
2023/03/08 06:50:34;;;;;;;12.18;3.65;;;;;;;0.34;100.00;99397.19;5064825;28;20451;-73
2023/03/08 06:52:59;;;;;;;11.15;3.38;;;;;;;0.27;100.00;99401.94;5070688;28;20021;-73
2023/03/08 06:55:24;;;;;;;12.10;3.63;;;;;;;0.26;100.00;99399.38;5070195;28;20106;-73
2023/03/08 06:57:50;;;;;;;13.25;3.80;;;;;;;0.26;100.00;99400.22;5067684;28;20488;-73
2023/03/08 07:00:16;;;;;;;14.65;4.68;;;;;;;0.25;100.00;99398.53;5066084;28;20060;-72
2023/03/08 07:02:42;;;;;;;13.55;3.83;;;;;;;0.26;100.00;99402.84;5059123;28;20523;-73
2023/03/08 07:05:07;;;;;;;13.57;3.75;;;;;;;0.26;100.00;99400.22;5041619;28;20048;-74
2023/03/08 07:07:34;;;;;;;10.40;3.08;;;;;;;0.24;100.00;99390.69;5059200;28;20395;-73
2023/03/08 07:09:59;;;;;;;9.07;3.25;;;;;;;0.22;100.00;99387.25;5063295;28;20035;-72
2023/03/08 07:12:25;;;;;;;11.40;3.78;;;;;;;0.23;100.00;99381.88;5062012;28;20036;-73
2023/03/08 07:14:52;;;;;;;8.15;2.70;;;;;;;0.25;100.00;99380.03;5062642;28;20360;-72
2023/03/08 07:17:18;;;;;;;13.70;3.10;;;;;;;0.22;100.00;99380.19;5064074;28;21186;-72
2023/03/08 07:19:44;;;;;;;10.43;3.08;;;;;;;0.24;100.00;99380.13;5066200;28;20032;-73
2023/03/08 07:22:09;;;;;;;11.77;3.63;;;;;;;0.27;100.00;99380.78;5059827;28;20074;-72
2023/03/08 07:24:34;;;;;;;10.65;2.80;;;;;;;0.30;100.00;99385.06;5062289;28;20109;-72
2023/03/08 07:26:59;;;;;;;10.57;2.60;;;;;;;0.26;100.00;99373.78;5063634;28;20044;-72
2023/03/08 07:29:25;;;;;;;11.48;3.08;;;;;;;0.24;100.00;99362.47;5060582;28;20052;-73
2023/03/08 07:31:50;;;;;;;13.20;3.30;;;;;;;0.25;100.00;99355.38;5059590;28;20032;-72
2023/03/08 07:34:15;;;;;;;10.40;3.10;;;;;;;0.17;100.00;99361.09;5061875;28;20040;-72
2023/03/08 07:36:41;;;;;;;10.48;2.97;;;;;;;0.16;100.00;99356.72;5061614;28;20115;-72
2023/03/08 07:39:06;;;;;;;10.45;3.38;;;;;;;0.15;100.00;99352.41;5060614;28;20116;-71
2023/03/08 07:41:33;;;;;;;15.25;3.90;;;;;;;0.18;100.00;99344.31;5057473;28;20052;-72
2023/03/08 07:43:59;;;;;;;11.88;3.55;;;;;;;0.24;100.00;99351.06;5060323;28;20032;-72
2023/03/08 07:46:24;;;;;;;15.25;3.47;;;;;;;0.30;100.00;99348.06;5070634;28;20085;-73
2023/03/08 07:48:51;;;;;;;13.75;3.60;;;;;;;0.30;100.00;99342.78;5074299;28;20537;-72
2023/03/08 07:51:16;;;;;;;12.20;3.72;;;;;;;0.28;100.00;99345.50;5074390;28;20074;-72
2023/03/08 07:53:41;;;;;;;15.82;4.93;;;;;;;0.26;100.00;99338.59;5072378;28;20029;-73
2023/03/08 07:56:07;;;;;;;18.85;4.55;;;;;;;0.27;100.00;99333.22;5072209;28;20021;-73
2023/03/08 07:58:33;;;;;;;16.15;4.68;;;;;;;0.28;100.00;99339.34;5074220;28;20028;-73
2023/03/08 08:00:58;;;;;;;13.88;4.47;;;;;;;0.33;100.00;99332.03;5067133;28;20028;-73
2023/03/08 08:03:23;;;;;;;17.23;5.43;;;;;;;0.34;100.00;99320.53;5073985;28;20365;-73
2023/03/08 08:05:48;;;;;;;17.10;4.47;;;;;;;0.39;100.00;99318.47;5072728;28;20119;-73
2023/03/08 08:08:14;;;;;;;19.90;6.10;;;;;;;0.40;100.00;99325.47;5072384;28;20031;-73
2023/03/08 08:10:40;;;;;;;16.00;5.60;;;;;;;0.39;100.00;99323.75;5069453;28;20472;-73
2023/03/08 08:13:06;;;;;;;17.55;5.25;;;;;;;0.41;100.00;99326.31;5061231;28;20017;-73
2023/03/08 08:15:31;;;;;;;16.92;5.22;;;;;;;0.40;100.00;99316.69;5072015;28;20177;-75
2023/03/08 08:17:57;;;;;;;15.20;5.07;;;;;;;0.40;100.00;99314.06;5072693;28;20035;-74
2023/03/08 08:20:24;;;;;;;16.95;5.20;;;;;;;0.40;100.00;99306.13;5067811;28;20017;-73
2023/03/08 08:22:52;;;;;;;21.10;6.07;;;;;;;0.44;100.00;99302.34;5066044;28;20525;-73
2023/03/08 08:25:18;;;;;;;16.42;5.63;;;;;;;0.49;100.00;99292.38;5067972;28;20074;-73
2023/03/08 08:27:43;;;;;;;18.67;6.15;;;;;;;0.46;100.00;99282.84;5066667;28;20060;-73
2023/03/08 08:30:11;;;;;;;17.85;5.68;;;;;;;0.48;100.00;99290.69;5064317;28;20098;-73
2023/03/08 08:32:37;;;;;;;17.65;6.13;;;;;;;0.52;100.00;99287.75;5068385;28;20032;-73
2023/03/08 08:35:02;;;;;;;19.15;6.57;;;;;;;0.52;100.00;99284.28;5065656;28;20021;-74
2023/03/08 08:37:29;;;;;;;18.40;6.40;;;;;;;0.55;100.00;99280.63;5061024;28;20020;-73
2023/03/08 08:39:54;;;;;;;19.80;6.07;;;;;;;0.54;100.00;99261.25;5064528;28;20032;-73
2023/03/08 08:42:20;;;;;;;15.02;4.88;;;;;;;0.56;100.00;99264.66;5062631;28;20097;-73
2023/03/08 08:44:45;;;;;;;19.80;5.80;;;;;;;0.56;100.00;99264.66;5062419;28;20020;-73
2023/03/08 08:47:10;;;;;;;17.58;5.07;;;;;;;0.52;100.00;99276.34;5063879;28;20411;-72
2023/03/08 08:49:35;;;;;;;14.88;4.82;;;;;;;0.53;100.00;99272.78;5067099;28;20021;-73
2023/03/08 08:52:01;;;;;;;16.33;4.88;;;;;;;0.51;100.00;99274.63;5066437;28;20040;-73
2023/03/08 08:54:26;;;;;;;17.88;4.90;;;;;;;0.54;100.00;99290.31;5067712;28;20111;-74
2023/03/08 08:56:51;;;;;;;17.85;5.03;;;;;;;0.55;100.00;99299.97;5066049;28;20028;-74
2023/03/08 08:59:16;;;;;;;15.73;5.15;;;;;;;0.57;100.00;99298.09;5063436;28;20031;-73
2023/03/08 09:01:45;;;;;;;17.40;5.20;;;;;;;0.55;100.00;99307.91;5065417;28;20032;-74
2023/03/08 09:04:12;;;;;;;19.50;5.68;;;;;;;0.54;100.00;99303.53;5065119;28;20094;-73
2023/03/08 09:06:38;;;;;;;17.38;5.05;;;;;;;0.52;100.00;99308.91;5065159;28;20044;-74
2023/03/08 09:09:04;;;;;;;18.77;5.63;;;;;;;0.50;100.00;99307.31;5063518;28;20039;-73
2023/03/08 09:11:30;;;;;;;18.40;5.63;;;;;;;0.47;100.00;99304.81;5060476;28;20017;-73
2023/03/08 09:13:56;;;;;;;20.45;6.90;;;;;;;0.43;100.00;99283.00;5059413;28;20090;-74
2023/03/08 09:16:27;;;;;;;19.15;6.53;;;;;;;0.41;100.00;99265.53;5057493;28;20416;-73
2023/03/08 09:18:55;;;;;;;19.35;6.70;;;;;;;0.44;100.00;99249.50;5064821;28;20115;-74
2023/03/08 09:21:20;;;;;;;20.52;7.38;;;;;;;0.45;100.00;99241.47;5059699;28;20388;-73
2023/03/08 09:23:45;;;;;;;20.85;7.38;;;;;;;0.47;100.00;99233.44;5063052;28;20040;-73
2023/03/08 09:26:11;;;;;;;19.42;6.55;;;;;;;0.48;100.00;99241.31;5063533;28;20032;-73
2023/03/08 09:28:36;;;;;;;22.25;8.60;;;;;;;0.47;100.00;99226.41;5065229;28;20520;-73
2023/03/08 09:31:13;;;;;;;19.83;6.85;;;;;;;0.54;100.00;99220.75;5060877;28;20033;-73
2023/03/08 09:33:40;;;;;;;23.30;8.27;;;;;;;0.55;100.00;99215.38;5059479;28;20708;-73
2023/03/08 09:36:06;;;;;;;20.60;7.68;;;;;;;0.55;100.00;99220.66;5066521;28;20387;-73
2023/03/08 09:38:31;;;;;;;19.83;6.90;;;;;;;0.52;100.00;99216.38;5065125;28;20049;-73
2023/03/08 09:41:05;;;;;;;19.63;6.65;;;;;;;0.51;100.00;99200.63;5058545;28;20048;-73
2023/03/08 09:43:46;;;;;;;16.67;6.55;;;;;;;0.55;100.00;99204.78;5061192;28;20037;-74
2023/03/08 09:46:15;;;;;;;18.38;6.30;;;;;;;0.56;100.00;99201.22;5064336;28;20052;-72
2023/03/08 09:48:46;;;;;;;19.00;6.20;;;;;;;0.58;100.00;99207.25;5058383;28;20135;-74
2023/03/08 09:51:15;;;;;;;16.60;5.45;;;;;;;0.58;100.00;99191.41;5069380;28;20134;-74
2023/03/08 09:53:46;;;;;;;18.85;6.85;;;;;;;0.65;100.00;99192.75;5065405;28;20024;-73
2023/03/08 09:56:23;;;;;;;18.77;7.00;;;;;;;0.73;100.00;99197.56;5068382;28;20028;-75
2023/03/08 09:59:01;;;;;;;16.00;5.93;;;;;;;0.76;100.00;99202.69;5065970;28;20077;-74
2023/03/08 10:01:37;;;;;;;19.60;6.57;;;;;;;0.85;100.00;99196.00;5069104;28;20028;-73
2023/03/08 10:04:40;;;;;;;19.75;6.60;;;;;;;0.89;100.00;99180.78;5064690;28;20373;-74
2023/03/08 10:07:34;;;;;;;20.13;8.23;;;;;;;0.95;100.00;99180.41;5069480;28;20036;-74
2023/03/08 10:10:10;;;;;;;21.67;7.75;;;;;;;0.99;100.00;99180.13;5066932;28;20035;-74
2023/03/08 10:13:03;;;;;;;22.85;9.00;;;;;;;1.06;100.00;99201.78;5066420;28;20079;-75
2023/03/08 10:15:32;;;;;;;20.85;8.82;;;;;;;1.11;100.00;99204.16;5067285;28;20570;-75
2023/03/08 10:18:12;;;;;;;23.67;10.25;;;;;;;1.12;100.00;99198.75;5062406;28;20024;-74
2023/03/08 10:20:40;;;;;;;24.92;10.63;;;;;;;1.13;100.00;99195.19;5068004;28;20508;-76
2023/03/08 10:23:13;;;;;;;25.42;11.57;;;;;;;1.17;100.00;99190.53;5066784;28;20037;-76
2023/03/08 10:25:39;;;;;;;24.38;11.20;;;;;;;1.17;100.00;99187.91;5067919;28;20767;-76
2023/03/08 10:28:11;;;;;;;26.48;13.00;;;;;;;1.19;100.00;99180.72;5061852;28;20024;-75
2023/03/08 10:30:43;;;;;;;25.75;12.45;;;;;;;1.22;100.00;99172.59;5067346;28;20078;-75
2023/03/08 10:33:11;;;;;;;26.70;12.75;;;;;;;1.29;100.00;99179.22;5064217;28;20111;-73
2023/03/08 10:35:51;;;;;;;24.48;11.52;;;;;;;1.28;100.00;99182.81;5068560;28;20035;-74
2023/03/08 10:38:17;;;;;;;24.45;11.65;;;;;;;1.32;100.00;99183.47;5062303;28;20021;-72
2023/03/08 10:40:42;;;;;;;25.27;11.70;;;;;;;1.35;100.00;99165.59;5066651;28;20017;-74
2023/03/08 10:43:27;;;;;;;24.10;11.45;;;;;;;1.38;100.00;99156.63;5068482;28;20044;-73
2023/03/08 10:46:01;;;;;;;26.00;12.93;;;;;;;1.40;100.00;99146.78;5067526;28;20024;-73
2023/03/08 10:48:27;;;;;;;23.85;10.88;;;;;;;1.39;100.00;99153.00;5069744;28;20127;-73
2023/03/08 10:51:00;;;;;;;24.15;10.95;;;;;;;1.38;100.00;99159.28;5069480;28;20021;-73
2023/03/08 10:53:28;;;;;;;25.77;11.23;;;;;;;1.36;100.00;99154.06;5069444;28;20064;-72
2023/03/08 10:55:55;;;;;;;24.65;12.15;;;;;;;1.37;100.00;99154.91;5071411;28;20039;-73
2023/03/08 10:58:33;;;;;;;25.63;12.27;;;;;;;1.35;100.00;99162.13;5069739;28;20020;-73
2023/03/08 11:01:03;;;;;;;26.17;11.75;;;;;;;1.36;100.00;99175.25;5072605;28;20151;-73
2023/03/08 11:03:28;;;;;;;23.67;11.13;;;;;;;1.37;100.00;99176.94;5071417;28;20495;-74
2023/03/08 11:06:01;;;;;;;26.38;13.00;;;;;;;1.38;100.00;99177.81;5070017;28;20127;-72
2023/03/08 11:08:30;;;;;;;27.33;13.15;;;;;;;1.36;100.00;99177.91;5069584;28;20079;-73
2023/03/08 11:11:11;;;;;;;24.45;12.55;;;;;;;1.39;100.00;99180.34;5068925;28;20017;-73
2023/03/08 11:13:40;;;;;;;26.27;13.15;;;;;;;1.35;100.00;99181.47;5068017;28;20123;-73
2023/03/08 11:16:19;;;;;;;23.98;11.32;;;;;;;1.33;100.00;99174.56;5066278;28;20047;-73
2023/03/08 11:18:44;;;;;;;23.50;11.95;;;;;;;1.30;100.00;99172.13;5070739;28;20028;-74
2023/03/08 11:21:39;;;;;;;24.98;12.20;;;;;;;1.33;100.00;99154.28;5069124;28;20031;-73